Aviation Digital Data Service (ADDS)

Output produced by TAFs form (1900 UTC 22 September 2017)
found at http://www.aviationweather.gov/adds/tafs/
 
KPOU 221733Z 2218/2318 35012G19KT P6SM SCT200 
     FM230000 36008KT P6SM SCT200 
     FM230600 VRB03KT P6SM SCT250 
     FM231400 36005KT P6SM SKC